Time;durP1;ratioP1;P1;durP2;ratioP2;P2;SDS_P1;SDS_P2;PMS_P1;PMS_P2;Temp;Humidity;BMP_temperature;BMP_pressure;BME280_temperature;BME280_humidity;BME280_pressure;Samples;Min_cycle;Max_cycle;Signal;HPM_P1;HPM_P2
2022/08/10 00:00:21;;;;;;;10.88;4.90;;;16.10;99.90;;;;;;5065793;28;20050;-73
2022/08/10 00:02:48;;;;;;;5.85;4.60;;;16.10;99.90;;;;;;5081558;28;20036;-72
2022/08/10 00:05:14;;;;;;;8.90;5.68;;;16.10;99.90;;;;;;5083659;28;20111;-74
2022/08/10 00:07:39;;;;;;;6.43;4.82;;;16.10;99.90;;;;;;5063993;28;20036;-73
2022/08/10 00:10:06;;;;;;;9.65;5.70;;;16.00;99.90;;;;;;5065396;28;20138;-73
2022/08/10 00:12:32;;;;;;;11.15;6.38;;;16.00;99.90;;;;;;5082277;28;20139;-72
2022/08/10 00:14:59;;;;;;;9.63;6.10;;;16.10;99.90;;;;;;5079085;28;20348;-72
2022/08/10 00:17:25;;;;;;;7.28;5.78;;;16.00;99.90;;;;;;5063822;28;20048;-73
2022/08/10 00:19:50;;;;;;;11.60;6.80;;;16.00;99.90;;;;;;5081640;28;20040;-73
2022/08/10 00:22:16;;;;;;;14.55;7.93;;;16.00;99.90;;;;;;5067264;28;20063;-72
2022/08/10 00:24:42;;;;;;;12.02;7.57;;;16.00;99.90;;;;;;5081394;28;20152;-72
2022/08/10 00:27:07;;;;;;;12.35;6.97;;;16.00;99.90;;;;;;5082464;28;20059;-73
2022/08/10 00:29:33;;;;;;;13.65;7.90;;;16.00;99.90;;;;;;5077831;28;20138;-71
2022/08/10 00:31:59;;;;;;;10.32;7.88;;;16.00;99.90;;;;;;5082182;28;20569;-71
2022/08/10 00:34:26;;;;;;;11.85;8.98;;;16.00;99.90;;;;;;5083283;28;20069;-72
2022/08/10 00:36:52;;;;;;;12.88;8.27;;;16.00;99.90;;;;;;5080721;28;20119;-72
2022/08/10 00:39:18;;;;;;;12.95;9.52;;;16.10;99.90;;;;;;5080745;28;20862;-73
2022/08/10 00:41:43;;;;;;;13.50;9.55;;;16.00;99.90;;;;;;5079247;28;20040;-73
2022/08/10 00:44:09;;;;;;;13.48;9.27;;;16.10;99.90;;;;;;5065088;28;20040;-72
2022/08/10 00:46:34;;;;;;;14.68;9.45;;;16.00;99.90;;;;;;5075347;28;20113;-72
2022/08/10 00:49:00;;;;;;;14.40;9.93;;;16.00;99.90;;;;;;5063591;28;20048;-72
2022/08/10 00:51:26;;;;;;;14.50;9.82;;;16.00;99.90;;;;;;5065375;28;20134;-73
2022/08/10 00:53:52;;;;;;;14.07;10.23;;;16.00;99.90;;;;;;5084183;28;20518;-72
2022/08/10 00:56:18;;;;;;;14.80;9.25;;;16.10;99.90;;;;;;5081078;28;20055;-72
2022/08/10 00:58:44;;;;;;;13.55;9.35;;;16.00;99.90;;;;;;5062142;28;20399;-71
2022/08/10 01:01:11;;;;;;;14.10;9.68;;;16.00;99.90;;;;;;5093517;28;20041;-73
2022/08/10 01:03:36;;;;;;;17.83;10.38;;;16.00;99.90;;;;;;5068855;28;20491;-73
2022/08/10 01:06:22;;;;;;;16.23;10.05;;;15.90;99.90;;;;;;5082738;28;20040;-73
2022/08/10 01:09:00;;;;;;;14.13;10.10;;;16.00;99.90;;;;;;5082272;28;20142;-72
2022/08/10 01:11:41;;;;;;;14.25;9.77;;;16.00;99.90;;;;;;5078143;28;20048;-72
2022/08/10 01:14:20;;;;;;;12.40;9.45;;;16.00;99.90;;;;;;5079007;28;20047;-73
2022/08/10 01:16:56;;;;;;;15.75;9.55;;;16.00;99.90;;;;;;5083445;28;20093;-73
2022/08/10 01:19:46;;;;;;;18.92;10.45;;;16.00;99.90;;;;;;5055969;28;20513;-73
2022/08/10 01:22:50;;;;;;;15.02;9.27;;;16.00;99.90;;;;;;5053950;28;20486;-73
2022/08/10 01:25:28;;;;;;;17.98;10.10;;;16.00;99.90;;;;;;5063784;28;20071;-73
2022/08/10 01:27:53;;;;;;;12.20;9.75;;;16.00;99.90;;;;;;5080047;28;20047;-73
2022/08/10 01:30:20;;;;;;;21.73;10.20;;;16.00;99.90;;;;;;5061498;28;20032;-72
2022/08/10 01:32:46;;;;;;;15.73;10.00;;;16.00;99.90;;;;;;5093484;28;20096;-74
2022/08/10 01:35:30;;;;;;;16.88;9.85;;;16.00;99.90;;;;;;5080412;28;20046;-73
2022/08/10 01:38:02;;;;;;;16.33;10.00;;;16.00;99.90;;;;;;5082182;28;20494;-72
2022/08/10 01:40:32;;;;;;;14.68;10.25;;;15.90;99.90;;;;;;5082584;28;20044;-72
2022/08/10 01:43:00;;;;;;;12.13;9.38;;;16.00;99.90;;;;;;5086299;28;20066;-73
2022/08/10 01:45:28;;;;;;;14.65;10.38;;;15.90;99.90;;;;;;5086561;28;20032;-72
2022/08/10 01:50:49;;;;;;;16.27;10.10;;;15.90;99.90;;;;;;5086370;28;20048;-72
2022/08/10 01:53:45;;;;;;;14.45;10.57;;;15.90;99.90;;;;;;5073777;28;20064;-73
2022/08/10 01:56:14;;;;;;;15.50;10.30;;;15.90;99.90;;;;;;5078052;28;20067;-73
2022/08/10 01:58:41;;;;;;;17.38;10.65;;;15.90;99.90;;;;;;5082666;28;20036;-73
2022/08/10 02:01:09;;;;;;;18.80;11.35;;;15.90;99.90;;;;;;5086756;28;20045;-72
2022/08/10 02:03:38;;;;;;;15.73;10.57;;;15.90;99.90;;;;;;5066566;28;20144;-73
2022/08/10 02:06:06;;;;;;;16.48;10.77;;;15.90;99.90;;;;;;5066732;28;20052;-73
2022/08/10 02:08:36;;;;;;;14.57;10.98;;;15.90;99.90;;;;;;5069168;28;20046;-72
2022/08/10 02:11:03;;;;;;;19.73;11.50;;;15.90;99.90;;;;;;5065080;28;20051;-73
2022/08/10 02:13:30;;;;;;;16.77;10.52;;;15.90;99.90;;;;;;5082656;28;20046;-73
2022/08/10 02:15:59;;;;;;;14.27;10.85;;;15.80;99.90;;;;;;5083577;28;20051;-73
2022/08/10 02:18:25;;;;;;;15.85;10.45;;;15.80;99.90;;;;;;5068711;28;20066;-72
2022/08/10 02:20:53;;;;;;;15.77;10.40;;;15.90;99.90;;;;;;5084711;28;20066;-73
2022/08/10 02:23:28;;;;;;;16.08;10.40;;;15.80;99.90;;;;;;5081569;28;20380;-73
2022/08/10 02:25:57;;;;;;;15.52;10.20;;;15.80;99.90;;;;;;5081371;28;20051;-73
2022/08/10 02:28:25;;;;;;;15.52;10.68;;;15.70;99.90;;;;;;5099536;27;20089;-73
2022/08/10 02:30:54;;;;;;;16.02;10.45;;;15.80;99.90;;;;;;5096735;28;20032;-72
2022/08/10 02:33:21;;;;;;;16.35;10.48;;;15.70;99.90;;;;;;5091052;28;20113;-72
2022/08/10 02:35:50;;;;;;;16.45;10.35;;;15.70;99.90;;;;;;5088829;28;20063;-70
2022/08/10 02:42:23;;;;;;;13.20;10.90;;;15.80;99.90;;;;;;5083013;28;20119;-73
2022/08/10 02:45:15;;;;;;;18.23;10.50;;;15.80;99.90;;;;;;5082287;28;20348;-72
2022/08/10 02:47:49;;;;;;;17.80;10.55;;;15.80;99.90;;;;;;5096359;28;20032;-72
2022/08/10 02:50:33;;;;;;;18.05;11.30;;;15.80;99.90;;;;;;5090196;28;20036;-73
2022/08/10 02:53:05;;;;;;;14.18;10.52;;;15.80;99.90;;;;;;5088825;28;20032;-73
2022/08/10 02:55:54;;;;;;;14.40;10.52;;;15.80;99.90;;;;;;5069672;28;20135;-73
2022/08/10 02:58:33;;;;;;;15.63;11.18;;;15.80;99.90;;;;;;5074621;28;20078;-73
2022/08/10 03:01:03;;;;;;;15.77;10.75;;;15.80;99.90;;;;;;5071659;28;20090;-73
2022/08/10 03:03:42;;;;;;;16.52;11.13;;;15.80;99.90;;;;;;5089891;28;20044;-72
2022/08/10 03:06:12;;;;;;;14.43;10.40;;;15.80;99.90;;;;;;5067482;28;20085;-73
2022/08/10 03:08:42;;;;;;;19.50;10.95;;;15.80;99.90;;;;;;5075687;28;20059;-73
2022/08/10 03:11:17;;;;;;;17.80;11.32;;;15.70;99.90;;;;;;5071031;28;20056;-73
2022/08/10 03:13:44;;;;;;;18.25;11.25;;;15.70;99.90;;;;;;5070589;28;20054;-72
2022/08/10 03:16:11;;;;;;;18.70;12.05;;;15.70;99.90;;;;;;5072842;28;20040;-73
2022/08/10 03:18:37;;;;;;;19.23;11.68;;;15.70;99.90;;;;;;5086231;28;20054;-72
2022/08/10 03:21:05;;;;;;;18.25;12.02;;;15.70;99.90;;;;;;5069617;28;20048;-72
2022/08/10 03:23:32;;;;;;;18.95;12.20;;;15.80;99.90;;;;;;5070000;28;20089;-73
2022/08/10 03:25:58;;;;;;;20.60;12.80;;;15.70;99.90;;;;;;5068319;28;20419;-73
2022/08/10 03:28:30;;;;;;;16.73;12.93;;;15.70;99.90;;;;;;5087003;28;20347;-73
2022/08/10 03:30:59;;;;;;;20.50;12.65;;;15.70;99.90;;;;;;5085945;28;20051;-72
2022/08/10 03:33:27;;;;;;;20.45;13.63;;;15.70;99.90;;;;;;5086638;28;20127;-72
2022/08/10 03:35:53;;;;;;;20.02;13.20;;;15.70;99.90;;;;;;5089137;28;20125;-73
2022/08/10 03:38:19;;;;;;;21.60;13.82;;;15.70;99.90;;;;;;5086276;28;20135;-73
2022/08/10 03:40:47;;;;;;;21.65;13.27;;;15.60;99.90;;;;;;5087948;28;20163;-74
2022/08/10 03:43:19;;;;;;;23.50;13.40;;;15.60;99.90;;;;;;5070465;28;20056;-73
2022/08/10 03:45:50;;;;;;;25.77;14.70;;;15.60;99.90;;;;;;5089770;28;20039;-73
2022/08/10 03:48:19;;;;;;;23.35;13.95;;;15.60;99.90;;;;;;5088876;28;20075;-73
2022/08/10 03:50:46;;;;;;;21.83;14.32;;;15.60;99.90;;;;;;5085792;28;20426;-73
2022/08/10 03:53:13;;;;;;;25.05;13.95;;;15.50;99.90;;;;;;5071885;28;20082;-72
2022/08/10 03:55:39;;;;;;;20.75;12.77;;;15.50;99.90;;;;;;5090612;28;20055;-72
2022/08/10 03:58:05;;;;;;;25.75;14.25;;;15.50;99.90;;;;;;5086288;28;20040;-73
2022/08/10 04:00:34;;;;;;;18.98;13.40;;;15.50;99.90;;;;;;5068629;28;20046;-73
2022/08/10 04:03:04;;;;;;;18.42;12.93;;;15.50;99.90;;;;;;5085291;28;20036;-72
2022/08/10 04:05:34;;;;;;;20.60;12.88;;;15.50;99.90;;;;;;5072943;28;20092;-72
2022/08/10 04:08:00;;;;;;;18.48;11.80;;;15.40;99.90;;;;;;5076680;28;20123;-73
2022/08/10 04:10:27;;;;;;;19.33;12.43;;;15.40;99.90;;;;;;5082522;28;20496;-72
2022/08/10 04:12:52;;;;;;;15.70;11.25;;;15.40;99.90;;;;;;5086401;28;20055;-73
2022/08/10 04:15:18;;;;;;;18.45;11.85;;;15.40;99.90;;;;;;5087738;28;20043;-72
2022/08/10 04:17:44;;;;;;;17.02;11.05;;;15.40;99.90;;;;;;5097147;28;20024;-72
2022/08/10 04:20:29;;;;;;;16.80;11.02;;;15.50;99.90;;;;;;5087238;28;20451;-72
2022/08/10 04:22:58;;;;;;;17.10;10.80;;;15.50;99.90;;;;;;5085236;28;20036;-72
2022/08/10 04:25:25;;;;;;;17.50;10.93;;;15.50;99.90;;;;;;5086995;28;20436;-73
2022/08/10 04:27:52;;;;;;;22.23;11.65;;;15.50;99.90;;;;;;5064702;28;20097;-72
2022/08/10 04:30:18;;;;;;;16.73;11.00;;;15.60;99.90;;;;;;5078650;28;20040;-72
2022/08/10 04:32:51;;;;;;;17.92;11.40;;;15.60;99.90;;;;;;5068293;28;20054;-72
2022/08/10 04:35:18;;;;;;;20.08;11.40;;;15.60;99.90;;;;;;5082297;28;20145;-72
2022/08/10 04:37:46;;;;;;;19.27;11.13;;;15.70;99.90;;;;;;5080094;28;20115;-73
2022/08/10 04:40:13;;;;;;;19.38;10.73;;;15.70;99.90;;;;;;5062941;28;20054;-73
2022/08/10 04:42:38;;;;;;;16.98;10.82;;;15.70;99.90;;;;;;5076637;28;20032;-73
2022/08/10 04:45:10;;;;;;;20.05;11.52;;;15.80;99.90;;;;;;5086225;28;20113;-72
2022/08/10 04:47:39;;;;;;;18.92;10.75;;;15.80;99.90;;;;;;5067520;28;20082;-72
2022/08/10 04:50:05;;;;;;;16.60;10.88;;;15.80;99.90;;;;;;5085373;28;20098;-72
2022/08/10 04:52:34;;;;;;;21.20;10.70;;;15.90;99.90;;;;;;5086559;28;20127;-73
2022/08/10 04:54:59;;;;;;;18.30;11.60;;;15.90;99.90;;;;;;5086893;28;20126;-73
2022/08/10 04:57:25;;;;;;;15.63;10.82;;;15.90;99.90;;;;;;5058704;28;20143;-72
2022/08/10 04:59:51;;;;;;;26.40;11.00;;;16.00;99.90;;;;;;5086120;28;20055;-73
2022/08/10 05:02:16;;;;;;;15.60;10.75;;;16.00;99.90;;;;;;5083724;28;20467;-73
2022/08/10 05:04:42;;;;;;;18.73;11.00;;;16.10;99.90;;;;;;5085717;28;20093;-73
2022/08/10 05:07:10;;;;;;;17.83;10.80;;;16.10;99.90;;;;;;5085381;28;20040;-73
2022/08/10 05:09:37;;;;;;;13.65;10.65;;;16.10;99.90;;;;;;5083215;28;20047;-73
2022/08/10 05:12:03;;;;;;;18.15;11.02;;;16.20;99.90;;;;;;5081451;28;20060;-72
2022/08/10 05:14:28;;;;;;;15.63;10.57;;;16.30;99.90;;;;;;5085338;28;20054;-73
2022/08/10 05:16:54;;;;;;;15.65;10.27;;;16.40;99.90;;;;;;5069385;28;20048;-72
2022/08/10 05:19:20;;;;;;;18.80;10.93;;;16.40;99.90;;;;;;5081572;28;20036;-72
2022/08/10 05:21:45;;;;;;;16.27;11.23;;;16.40;99.90;;;;;;5072882;28;20515;-73
2022/08/10 05:25:07;;;;;;;19.45;11.00;;;16.40;99.90;;;;;;5087317;28;20067;-73
2022/08/10 05:27:33;;;;;;;16.23;10.13;;;16.40;99.90;;;;;;5081212;28;20040;-73
2022/08/10 05:29:59;;;;;;;15.82;10.57;;;16.50;99.90;;;;;;5067806;28;20486;-76
2022/08/10 05:32:25;;;;;;;18.23;10.60;;;16.50;99.90;;;;;;5075997;28;20037;-77
2022/08/10 05:34:50;;;;;;;15.88;9.85;;;16.60;99.90;;;;;;5057906;28;20432;-75
2022/08/10 05:37:18;;;;;;;14.45;10.55;;;16.70;99.90;;;;;;5063954;28;20047;-74
2022/08/10 05:39:45;;;;;;;17.23;10.05;;;16.80;99.90;;;;;;5083132;28;20123;-73
2022/08/10 05:42:11;;;;;;;14.77;9.07;;;16.90;99.90;;;;;;5084830;28;20043;-74
2022/08/10 05:44:37;;;;;;;17.30;9.48;;;17.00;99.90;;;;;;5080908;28;20044;-71
2022/08/10 05:47:04;;;;;;;14.80;8.95;;;17.00;99.90;;;;;;5061840;28;20522;-76
2022/08/10 05:49:30;;;;;;;13.25;8.88;;;17.10;99.90;;;;;;5061026;28;20468;-76
2022/08/10 05:51:56;;;;;;;13.88;9.20;;;17.20;99.90;;;;;;5059139;28;20048;-77
2022/08/10 05:54:24;;;;;;;13.15;9.13;;;17.20;99.90;;;;;;5075466;28;20147;-75
2022/08/10 05:56:49;;;;;;;13.05;8.80;;;17.30;99.90;;;;;;5060521;28;20197;-76
2022/08/10 05:59:17;;;;;;;18.17;8.90;;;17.30;99.90;;;;;;5073617;28;20487;-76
2022/08/10 06:01:45;;;;;;;14.32;8.95;;;17.40;99.90;;;;;;5060046;28;20412;-74
2022/08/10 06:04:18;;;;;;;13.02;8.57;;;17.40;99.90;;;;;;5074926;28;20210;-75
2022/08/10 06:06:46;;;;;;;14.65;8.57;;;17.50;99.90;;;;;;5079487;28;20047;-74
2022/08/10 06:09:15;;;;;;;13.77;7.90;;;17.50;99.90;;;;;;5079600;28;20134;-73
2022/08/10 06:11:42;;;;;;;12.35;7.80;;;17.50;99.90;;;;;;5066865;28;20109;-77
2022/08/10 06:16:54;;;;;;;14.65;8.00;;;17.60;99.90;;;;;;5080177;28;20109;-73
2022/08/10 06:19:21;;;;;;;15.02;8.20;;;17.60;99.90;;;;;;5061233;28;20056;-77
2022/08/10 06:21:48;;;;;;;10.05;7.80;;;17.70;99.90;;;;;;5063930;28;20044;-73
2022/08/10 06:24:16;;;;;;;10.40;7.07;;;17.70;99.90;;;;;;5085658;28;20044;-73
2022/08/10 06:26:43;;;;;;;13.43;7.93;;;17.80;99.90;;;;;;5063589;28;20128;-76
2022/08/10 06:29:15;;;;;;;12.43;6.88;;;17.90;99.90;;;;;;5064354;28;20105;-76
2022/08/10 06:31:51;;;;;;;11.00;7.35;;;18.00;99.90;;;;;;5076303;28;20044;-76
2022/08/10 06:34:32;;;;;;;12.00;7.28;;;18.00;99.90;;;;;;5070118;28;20040;-74
2022/08/10 06:37:00;;;;;;;12.48;6.90;;;18.00;99.90;;;;;;5072925;28;20465;-74
2022/08/10 06:39:27;;;;;;;13.25;6.93;;;18.10;99.90;;;;;;5081208;28;20104;-76
2022/08/10 06:42:15;;;;;;;14.65;7.10;;;18.10;99.90;;;;;;5074215;28;20102;-74
2022/08/10 06:44:53;;;;;;;11.93;6.60;;;18.30;99.90;;;;;;5078295;28;20138;-72
2022/08/10 06:47:24;;;;;;;9.75;5.93;;;18.40;99.90;;;;;;5063856;28;20055;-75
2022/08/10 06:49:54;;;;;;;12.50;6.35;;;18.50;99.90;;;;;;5065114;28;20036;-75
2022/08/10 06:52:22;;;;;;;10.10;5.90;;;18.50;99.90;;;;;;5077084;28;21546;-76
2022/08/10 06:54:52;;;;;;;9.32;5.38;;;18.60;99.90;;;;;;5076178;28;20067;-74
2022/08/10 06:57:19;;;;;;;9.50;5.38;;;18.70;99.90;;;;;;5077235;28;20368;-75
2022/08/10 06:59:48;;;;;;;9.10;4.30;;;18.70;99.90;;;;;;5067950;28;20243;-75
2022/08/10 07:02:23;;;;;;;8.60;4.15;;;18.80;99.90;;;;;;5084073;28;20405;-76
2022/08/10 07:04:59;;;;;;;9.65;3.92;;;18.90;99.90;;;;;;5081758;28;20040;-75
2022/08/10 07:07:31;;;;;;;6.18;3.78;;;18.90;99.90;;;;;;5077724;28;20118;-74
2022/08/10 07:09:58;;;;;;;10.85;3.63;;;19.10;99.90;;;;;;5073924;28;20551;-75
2022/08/10 07:12:26;;;;;;;8.65;3.40;;;19.10;99.90;;;;;;5074183;28;20551;-75
2022/08/10 07:14:53;;;;;;;7.25;3.20;;;19.20;99.90;;;;;;5071900;28;20534;-74
2022/08/10 07:17:21;;;;;;;11.32;3.50;;;19.30;99.90;;;;;;5064323;28;20440;-75
2022/08/10 07:19:50;;;;;;;7.75;3.30;;;19.30;99.90;;;;;;5068362;28;20375;-76
2022/08/10 07:22:18;;;;;;;8.55;3.20;;;19.40;99.90;;;;;;5082530;28;20122;-74
2022/08/10 07:24:45;;;;;;;9.45;2.92;;;19.40;99.90;;;;;;5079192;28;20543;-76
2022/08/10 07:27:12;;;;;;;9.85;3.38;;;19.50;99.90;;;;;;5059860;28;20028;-75
2022/08/10 07:29:41;;;;;;;7.72;3.00;;;19.50;99.90;;;;;;5078837;28;20051;-75
2022/08/10 07:32:10;;;;;;;6.50;3.17;;;19.50;99.90;;;;;;5063818;28;20034;-74
2022/08/10 07:34:38;;;;;;;5.55;2.78;;;19.50;99.90;;;;;;5083631;28;20043;-71
2022/08/10 07:37:07;;;;;;;7.95;2.92;;;19.60;99.90;;;;;;5078931;28;20055;-72
2022/08/10 07:39:36;;;;;;;6.45;3.03;;;19.60;99.90;;;;;;5072818;28;20364;-73
2022/08/10 07:42:06;;;;;;;9.38;3.00;;;19.70;99.90;;;;;;5067298;28;20532;-73
2022/08/10 07:44:38;;;;;;;6.03;2.60;;;19.80;99.90;;;;;;5079260;28;20046;-74
2022/08/10 07:47:07;;;;;;;9.32;2.92;;;19.80;99.90;;;;;;5076269;28;20032;-73
2022/08/10 07:49:38;;;;;;;7.45;2.75;;;19.90;99.90;;;;;;5062657;28;20056;-74
2022/08/10 07:52:09;;;;;;;15.27;3.22;;;20.00;99.90;;;;;;5080732;28;20044;-73
2022/08/10 07:54:48;;;;;;;6.93;3.33;;;20.00;99.90;;;;;;5079651;28;20097;-72
2022/08/10 07:57:24;;;;;;;5.18;2.90;;;20.00;99.90;;;;;;5079135;28;20036;-74
2022/08/10 08:00:07;;;;;;;5.60;3.30;;;20.00;99.90;;;;;;5066530;28;20044;-72
2022/08/10 08:02:38;;;;;;;6.63;2.97;;;20.10;99.90;;;;;;5065153;28;20048;-74
2022/08/10 08:05:11;;;;;;;3.30;2.33;;;20.20;99.90;;;;;;5078435;28;20047;-72
2022/08/10 08:07:38;;;;;;;5.38;2.55;;;20.30;99.90;;;;;;5075322;28;20044;-72
2022/08/10 08:10:07;;;;;;;12.00;2.72;;;20.40;99.90;;;;;;5066221;28;20051;-74
2022/08/10 08:12:34;;;;;;;10.00;2.55;;;20.40;99.90;;;;;;5078010;28;20052;-72
2022/08/10 08:15:03;;;;;;;6.05;2.45;;;20.50;99.90;;;;;;5082127;28;20040;-75
2022/08/10 08:17:30;;;;;;;6.35;2.42;;;20.60;99.90;;;;;;5085073;28;20500;-72
2022/08/10 08:19:58;;;;;;;8.45;2.20;;;20.70;99.90;;;;;;5075327;28;20048;-74
2022/08/10 08:22:25;;;;;;;5.45;2.40;;;20.80;99.90;;;;;;5080030;28;20044;-74
2022/08/10 08:24:55;;;;;;;11.82;2.65;;;20.90;99.90;;;;;;5078258;28;20037;-74
2022/08/10 08:27:23;;;;;;;5.20;2.53;;;21.00;99.90;;;;;;5081547;28;20036;-73
2022/08/10 08:29:50;;;;;;;4.68;2.30;;;21.00;99.90;;;;;;5068777;28;20043;-74
2022/08/10 08:32:21;;;;;;;5.68;2.03;;;21.00;99.90;;;;;;5082676;28;20076;-73
2022/08/10 08:34:48;;;;;;;7.93;2.53;;;21.00;99.90;;;;;;5084994;28;20032;-74
2022/08/10 08:37:16;;;;;;;9.05;2.30;;;21.10;99.90;;;;;;5082280;28;20075;-74
2022/08/10 08:39:43;;;;;;;5.07;2.08;;;21.20;99.90;;;;;;5080789;28;20036;-74
2022/08/10 08:42:47;;;;;;;5.63;2.30;;;21.20;99.90;;;;;;5065332;28;20095;-73
2022/08/10 08:45:13;;;;;;;7.68;2.70;;;21.30;99.90;;;;;;5079498;28;20089;-72
2022/08/10 08:48:11;;;;;;;3.25;2.00;;;21.30;99.90;;;;;;5059498;28;20036;-73
2022/08/10 08:51:08;;;;;;;5.30;2.30;;;21.40;99.90;;;;;;5081660;28;20114;-72
2022/08/10 08:53:58;;;;;;;6.65;2.42;;;21.60;99.90;;;;;;5081549;28;20055;-74
2022/08/10 08:56:47;;;;;;;7.70;2.10;;;21.70;99.90;;;;;;5081579;28;20040;-73
2022/08/10 08:59:43;;;;;;;5.05;2.42;;;21.70;99.90;;;;;;5081903;28;20036;-74
2022/08/10 09:02:54;;;;;;;8.25;3.05;;;21.80;99.90;;;;;;5079281;28;20043;-74
2022/08/10 09:05:48;;;;;;;4.35;2.10;;;21.90;99.90;;;;;;5045374;28;20142;-73
2022/08/10 09:08:31;;;;;;;7.65;2.75;;;22.00;99.90;;;;;;5080092;28;20051;-74
2022/08/10 09:11:23;;;;;;;9.65;2.25;;;22.10;99.90;;;;;;5069430;28;20036;-75
2022/08/10 09:14:25;;;;;;;6.15;2.08;;;22.30;99.90;;;;;;5083647;28;20028;-74
2022/08/10 09:17:19;;;;;;;6.95;2.40;;;22.50;99.90;;;;;;5062244;28;20055;-74
2022/08/10 09:19:56;;;;;;;8.00;2.33;;;22.60;99.90;;;;;;5067806;28;20036;-74
2022/08/10 09:22:33;;;;;;;8.25;1.90;;;22.70;99.90;;;;;;5063852;28;20112;-73
2022/08/10 09:25:17;;;;;;;7.70;1.90;;;22.80;99.90;;;;;;5066015;28;20072;-74
2022/08/10 09:27:55;;;;;;;4.93;2.38;;;22.90;99.90;;;;;;5065695;28;20136;-73
2022/08/10 09:30:52;;;;;;;11.52;2.10;;;23.10;99.90;;;;;;5065375;28;20170;-72
2022/08/10 09:33:53;;;;;;;4.57;2.38;;;23.20;99.90;;;;;;5084126;28;20128;-73
2022/08/10 09:36:35;;;;;;;5.55;2.00;;;23.30;99.90;;;;;;5064100;28;20131;-73
2022/08/10 09:39:06;;;;;;;6.45;1.77;;;23.30;99.90;;;;;;5077022;28;20058;-73
2022/08/10 09:41:57;;;;;;;8.45;2.00;;;23.30;99.90;;;;;;5081181;28;20048;-74
2022/08/10 09:44:40;;;;;;;14.55;2.47;;;23.50;99.90;;;;;;5071934;28;20398;-75
2022/08/10 09:47:52;;;;;;;6.60;2.22;;;23.50;99.90;;;;;;5090393;28;20054;-74
2022/08/10 09:50:51;;;;;;;10.43;2.17;;;23.50;99.90;;;;;;5018890;28;20087;-73
2022/08/10 09:53:36;;;;;;;5.50;2.10;;;23.60;99.90;;;;;;5029354;28;20187;-73
2022/08/10 09:56:55;;;;;;;3.47;1.80;;;23.80;99.90;;;;;;5034035;28;20053;-72
2022/08/10 09:59:41;;;;;;;7.38;1.90;;;24.00;99.90;;;;;;4980275;28;20093;-73
2022/08/10 10:02:26;;;;;;;3.85;1.80;;;24.10;99.90;;;;;;4991978;28;20533;-74
2022/08/10 10:05:05;;;;;;;7.55;1.67;;;24.10;99.90;;;;;;4986116;28;20070;-73
2022/08/10 10:07:33;;;;;;;6.40;2.25;;;24.20;99.90;;;;;;4968780;28;20430;-73
2022/08/10 10:10:13;;;;;;;5.35;1.55;;;24.20;99.90;;;;;;4980217;28;20050;-74
2022/08/10 10:13:08;;;;;;;8.75;1.98;;;24.30;99.90;;;;;;4962977;28;20058;-75
2022/08/10 10:16:11;;;;;;;6.30;1.90;;;24.40;99.90;;;;;;4981631;28;20080;-75
2022/08/10 10:19:03;;;;;;;5.32;1.77;;;24.40;99.90;;;;;;4965951;28;20042;-74
2022/08/10 10:21:58;;;;;;;7.75;2.00;;;24.70;99.90;;;;;;4965392;28;20137;-73
2022/08/10 10:24:34;;;;;;;;;;;24.80;99.90;;;;;;4982459;28;20050;-72
2022/08/10 10:27:12;;;;;;;4.93;1.70;;;25.10;99.90;;;;;;4991553;28;19968;-73
2022/08/10 10:30:03;;;;;;;5.82;1.60;;;25.50;99.90;;;;;;4985867;28;20413;-72
2022/08/10 10:32:47;;;;;;;7.47;1.65;;;25.60;99.90;;;;;;4993670;28;20050;-71
2022/08/10 10:35:18;;;;;;;8.07;1.80;;;25.60;99.90;;;;;;5084646;28;20087;-72
2022/08/10 10:37:45;;;;;;;4.05;1.30;;;25.70;99.90;;;;;;5086354;28;20044;-72
2022/08/10 10:40:13;;;;;;;4.82;1.35;;;25.90;99.90;;;;;;5088781;28;20054;-72
2022/08/10 10:42:59;;;;;;;4.38;1.17;;;26.20;99.90;;;;;;5086436;28;20036;-73
2022/08/10 10:45:34;;;;;;;4.07;1.10;;;26.50;99.90;;;;;;5086073;28;20044;-72
2022/08/10 10:48:18;;;;;;;3.70;1.20;;;26.70;99.90;;;;;;5079870;28;20408;-72
2022/08/10 10:51:17;;;;;;;4.28;1.30;;;26.90;99.90;;;;;;5065236;28;20407;-72
2022/08/10 10:53:46;;;;;;;3.33;1.20;;;26.90;99.90;;;;;;5069869;28;20382;-73
2022/08/10 10:56:34;;;;;;;4.82;1.40;;;27.10;99.90;;;;;;5080595;28;20165;-73
2022/08/10 10:59:33;;;;;;;3.30;1.38;;;27.20;99.90;;;;;;5087600;28;20067;-72
2022/08/10 11:02:05;;;;;;;3.22;0.75;;;26.80;99.90;;;;;;4985616;28;20121;-72
2022/08/10 11:04:45;;;;;;;3.75;1.23;;;27.20;99.30;;;;;;4988221;28;20438;-75
2022/08/10 11:07:20;;;;;;;6.20;1.33;;;27.50;99.70;;;;;;4999761;28;20044;-75
2022/08/10 11:09:53;;;;;;;2.65;1.20;;;27.70;99.90;;;;;;4984143;28;20054;-76
2022/08/10 11:12:20;;;;;;;5.75;1.10;;;27.70;99.40;;;;;;4987016;28;20085;-74
2022/08/10 11:15:12;;;;;;;5.75;1.00;;;27.80;99.90;;;;;;5007907;28;20061;-75
2022/08/10 11:18:01;;;;;;;6.32;1.10;;;28.00;99.40;;;;;;4984841;28;20200;-74
2022/08/10 11:20:39;;;;;;;3.35;1.10;;;28.00;98.40;;;;;;4979650;28;20509;-74
2022/08/10 11:23:26;;;;;;;5.45;0.90;;;27.70;98.50;;;;;;4989803;28;20050;-74
2022/08/10 11:26:14;;;;;;;4.40;1.00;;;27.60;97.60;;;;;;4986739;28;20062;-74
2022/08/10 11:28:48;;;;;;;2.53;0.80;;;27.30;98.00;;;;;;4990148;28;20088;-75
2022/08/10 11:31:14;;;;;;;5.05;0.90;;;27.60;98.40;;;;;;4975320;28;20049;-74
2022/08/10 11:33:55;;;;;;;1.15;0.88;;;27.60;97.80;;;;;;4974038;28;20045;-75
2022/08/10 11:37:02;;;;;;;4.63;1.10;;;28.10;97.40;;;;;;4990583;28;21818;-75
2022/08/10 11:39:33;;;;;;;1.50;0.90;;;28.20;97.00;;;;;;5027276;28;20185;-74
2022/08/10 11:42:11;;;;;;;3.47;1.25;;;28.60;97.40;;;;;;5080151;28;20047;-74
2022/08/10 11:44:46;;;;;;;3.15;0.85;;;28.50;96.60;;;;;;5077633;28;20044;-74
2022/08/10 11:47:22;;;;;;;3.40;1.05;;;28.50;96.60;;;;;;5080328;28;20523;-73
2022/08/10 11:50:07;;;;;;;1.73;1.00;;;28.50;96.50;;;;;;5076987;28;20157;-74
2022/08/10 11:52:54;;;;;;;7.28;1.10;;;29.30;96.50;;;;;;5074518;28;20048;-74
2022/08/10 11:55:24;;;;;;;4.13;1.35;;;29.10;96.30;;;;;;5074710;28;20044;-74
2022/08/10 11:57:58;;;;;;;8.77;0.90;;;28.90;95.50;;;;;;5059668;28;20058;-74
2022/08/10 12:00:27;;;;;;;2.03;1.00;;;29.30;96.10;;;;;;5061324;28;20047;-73
2022/08/10 12:03:00;;;;;;;7.35;1.08;;;29.30;95.50;;;;;;5079548;28;20083;-72
2022/08/10 12:05:33;;;;;;;1.40;0.90;;;29.50;95.70;;;;;;5061564;28;20048;-75
2022/08/10 12:08:00;;;;;;;6.30;1.15;;;30.00;96.00;;;;;;5063858;28;20051;-75
2022/08/10 12:10:27;;;;;;;3.22;1.33;;;30.10;95.20;;;;;;5061570;28;20051;-74
2022/08/10 12:13:21;;;;;;;4.40;0.85;;;30.30;94.60;;;;;;5063083;28;20081;-75
2022/08/10 12:16:05;;;;;;;2.25;0.90;;;30.10;94.50;;;;;;5071221;28;20043;-74
2022/08/10 12:18:44;;;;;;;3.28;0.85;;;30.20;94.20;;;;;;5086666;28;20040;-73
2022/08/10 12:21:20;;;;;;;2.83;1.05;;;30.50;93.50;;;;;;5083139;28;20036;-73
2022/08/10 12:24:08;;;;;;;4.10;1.00;;;30.60;93.50;;;;;;5085333;28;20048;-75
2022/08/10 12:26:45;;;;;;;1.67;1.00;;;30.90;93.50;;;;;;5067090;28;20075;-74
2022/08/10 12:29:36;;;;;;;4.10;1.05;;;31.30;94.20;;;;;;5076347;28;20044;-74
2022/08/10 12:32:10;;;;;;;4.53;1.10;;;31.20;93.20;;;;;;5072625;28;20055;-76
2022/08/10 12:34:42;;;;;;;;;;;30.30;93.50;;;;;;5057434;28;20060;-73
2022/08/10 12:37:10;;;;;;;2.60;0.98;;;30.00;93.50;;;;;;5059087;28;19924;-75
2022/08/10 12:39:49;;;;;;;3.05;0.90;;;30.10;93.20;;;;;;5078989;28;20436;-76
2022/08/10 12:42:23;;;;;;;2.05;1.10;;;30.30;93.20;;;;;;5061775;28;20054;-75
2022/08/10 12:44:59;;;;;;;5.13;1.10;;;30.70;93.50;;;;;;5062050;28;20097;-75
2022/08/10 12:47:43;;;;;;;2.95;1.00;;;30.40;93.30;;;;;;5061459;28;20075;-76
2022/08/10 12:50:18;;;;;;;1.88;0.88;;;30.60;93.90;;;;;;5078087;28;20048;-76
2022/08/10 12:52:48;;;;;;;2.65;0.90;;;31.20;93.20;;;;;;5076282;28;20043;-75
2022/08/10 12:55:15;;;;;;;1.77;0.82;;;31.90;92.70;;;;;;5079659;28;20052;-75
2022/08/10 12:57:42;;;;;;;2.90;1.10;;;32.30;91.80;;;;;;5078631;28;20162;-75
2022/08/10 13:00:09;;;;;;;1.52;0.85;;;32.20;91.00;;;;;;5083562;28;20041;-73
2022/08/10 13:02:37;;;;;;;1.80;0.73;;;32.30;90.80;;;;;;5081430;28;20051;-75
2022/08/10 13:05:12;;;;;;;2.60;0.90;;;32.10;90.60;;;;;;5080727;28;20036;-74
2022/08/10 13:07:41;;;;;;;3.30;1.10;;;31.90;91.00;;;;;;5060111;28;20549;-73
2022/08/10 13:10:10;;;;;;;2.38;0.80;;;31.70;91.50;;;;;;5078524;28;20040;-75
2022/08/10 13:12:39;;;;;;;2.67;0.80;;;31.40;90.90;;;;;;5076930;28;20125;-75
2022/08/10 13:15:20;;;;;;;4.70;0.90;;;32.10;91.20;;;;;;5080043;28;20048;-74
2022/08/10 13:17:49;;;;;;;3.33;1.00;;;31.80;90.70;;;;;;5077895;28;20083;-73
2022/08/10 13:20:26;;;;;;;1.52;0.85;;;32.00;91.20;;;;;;5079231;28;20177;-75